sensor_id;sensor_type;location;lat;lon;timestamp;P1;durP1;ratioP1;P2;durP2;ratioP2
52368;SDS011;38298;50.346;3.526;2022-09-03T00:00:16;10.48;;;4.90;;
52368;SDS011;38298;50.346;3.526;2022-09-03T00:03:05;6.50;;;4.63;;
52368;SDS011;38298;50.346;3.526;2022-09-03T00:10:56;10.82;;;4.80;;
52368;SDS011;38298;50.346;3.526;2022-09-03T00:13:32;6.75;;;4.88;;
52368;SDS011;38298;50.346;3.526;2022-09-03T00:15:59;12.40;;;5.50;;
52368;SDS011;38298;50.346;3.526;2022-09-03T00:18:29;8.27;;;5.70;;
52368;SDS011;38298;50.346;3.526;2022-09-03T00:20:57;8.75;;;5.22;;
52368;SDS011;38298;50.346;3.526;2022-09-03T00:23:27;14.52;;;6.07;;
52368;SDS011;38298;50.346;3.526;2022-09-03T00:28:44;8.35;;;5.10;;
52368;SDS011;38298;50.346;3.526;2022-09-03T00:31:15;6.90;;;4.53;;
52368;SDS011;38298;50.346;3.526;2022-09-03T00:33:43;6.97;;;4.65;;
52368;SDS011;38298;50.346;3.526;2022-09-03T00:36:20;11.57;;;4.97;;
52368;SDS011;38298;50.346;3.526;2022-09-03T00:38:48;6.45;;;4.70;;
52368;SDS011;38298;50.346;3.526;2022-09-03T00:41:31;7.22;;;4.78;;
52368;SDS011;38298;50.346;3.526;2022-09-03T00:44:05;9.63;;;5.15;;
52368;SDS011;38298;50.346;3.526;2022-09-03T00:46:45;12.35;;;4.70;;
52368;SDS011;38298;50.346;3.526;2022-09-03T00:57:45;8.18;;;5.18;;
52368;SDS011;38298;50.346;3.526;2022-09-03T01:00:09;10.57;;;6.18;;
52368;SDS011;38298;50.346;3.526;2022-09-03T01:10:41;7.00;;;4.72;;
52368;SDS011;38298;50.346;3.526;2022-09-03T01:13:58;5.57;;;4.45;;
52368;SDS011;38298;50.346;3.526;2022-09-03T01:18:29;9.10;;;5.00;;
52368;SDS011;38298;50.346;3.526;2022-09-03T01:23:47;6.60;;;5.22;;
52368;SDS011;38298;50.346;3.526;2022-09-03T01:28:58;6.72;;;5.00;;
52368;SDS011;38298;50.346;3.526;2022-09-03T01:36:34;7.65;;;5.03;;
52368;SDS011;38298;50.346;3.526;2022-09-03T01:39:03;8.23;;;5.50;;
52368;SDS011;38298;50.346;3.526;2022-09-03T01:46:59;7.90;;;5.20;;
52368;SDS011;38298;50.346;3.526;2022-09-03T01:49:30;9.13;;;5.20;;
52368;SDS011;38298;50.346;3.526;2022-09-03T01:54:28;7.38;;;5.20;;
52368;SDS011;38298;50.346;3.526;2022-09-03T01:57:07;9.60;;;5.32;;
52368;SDS011;38298;50.346;3.526;2022-09-03T01:59:45;10.48;;;5.72;;
52368;SDS011;38298;50.346;3.526;2022-09-03T02:02:15;6.28;;;5.18;;
52368;SDS011;38298;50.346;3.526;2022-09-03T02:04:55;7.53;;;5.38;;
52368;SDS011;38298;50.346;3.526;2022-09-03T02:07:23;10.32;;;5.63;;
52368;SDS011;38298;50.346;3.526;2022-09-03T02:09:50;7.28;;;4.85;;
52368;SDS011;38298;50.346;3.526;2022-09-03T02:12:16;11.45;;;4.97;;
52368;SDS011;38298;50.346;3.526;2022-09-03T02:14:44;6.72;;;5.28;;
52368;SDS011;38298;50.346;3.526;2022-09-03T02:17:10;7.03;;;4.78;;
52368;SDS011;38298;50.346;3.526;2022-09-03T02:19:37;6.65;;;5.15;;
52368;SDS011;38298;50.346;3.526;2022-09-03T02:22:03;7.03;;;4.50;;
52368;SDS011;38298;50.346;3.526;2022-09-03T02:24:30;8.75;;;5.40;;
52368;SDS011;38298;50.346;3.526;2022-09-03T02:26:56;9.43;;;4.82;;
52368;SDS011;38298;50.346;3.526;2022-09-03T02:29:22;6.50;;;4.85;;
52368;SDS011;38298;50.346;3.526;2022-09-03T02:31:49;7.65;;;4.60;;
52368;SDS011;38298;50.346;3.526;2022-09-03T02:34:15;9.05;;;5.35;;
52368;SDS011;38298;50.346;3.526;2022-09-03T02:36:45;7.40;;;5.03;;
52368;SDS011;38298;50.346;3.526;2022-09-03T02:39:13;6.28;;;4.70;;
52368;SDS011;38298;50.346;3.526;2022-09-03T02:41:40;7.10;;;4.93;;
52368;SDS011;38298;50.346;3.526;2022-09-03T02:44:08;6.55;;;4.47;;
52368;SDS011;38298;50.346;3.526;2022-09-03T02:46:42;7.30;;;5.18;;
52368;SDS011;38298;50.346;3.526;2022-09-03T02:49:09;6.80;;;5.30;;
52368;SDS011;38298;50.346;3.526;2022-09-03T02:51:39;7.85;;;5.30;;
52368;SDS011;38298;50.346;3.526;2022-09-03T02:54:06;6.82;;;4.97;;
52368;SDS011;38298;50.346;3.526;2022-09-03T02:56:32;9.93;;;5.68;;
52368;SDS011;38298;50.346;3.526;2022-09-03T02:58:58;6.43;;;5.10;;
52368;SDS011;38298;50.346;3.526;2022-09-03T03:01:24;7.93;;;5.50;;
52368;SDS011;38298;50.346;3.526;2022-09-03T03:03:50;9.13;;;5.55;;
52368;SDS011;38298;50.346;3.526;2022-09-03T03:06:17;6.22;;;4.80;;
52368;SDS011;38298;50.346;3.526;2022-09-03T03:08:47;6.85;;;5.32;;
52368;SDS011;38298;50.346;3.526;2022-09-03T03:11:14;6.65;;;5.18;;
52368;SDS011;38298;50.346;3.526;2022-09-03T03:13:42;8.40;;;5.13;;
52368;SDS011;38298;50.346;3.526;2022-09-03T03:16:08;6.68;;;4.88;;
52368;SDS011;38298;50.346;3.526;2022-09-03T03:18:34;8.23;;;4.72;;
52368;SDS011;38298;50.346;3.526;2022-09-03T03:21:04;8.07;;;4.93;;
52368;SDS011;38298;50.346;3.526;2022-09-03T03:23:31;7.38;;;5.05;;
52368;SDS011;38298;50.346;3.526;2022-09-03T03:26:07;6.25;;;5.22;;
52368;SDS011;38298;50.346;3.526;2022-09-03T03:28:33;8.15;;;5.53;;
52368;SDS011;38298;50.346;3.526;2022-09-03T03:31:13;7.13;;;5.15;;
52368;SDS011;38298;50.346;3.526;2022-09-03T03:33:39;7.72;;;5.45;;
52368;SDS011;38298;50.346;3.526;2022-09-03T03:36:14;6.70;;;5.05;;
52368;SDS011;38298;50.346;3.526;2022-09-03T03:38:41;7.32;;;5.15;;
52368;SDS011;38298;50.346;3.526;2022-09-03T03:41:12;8.27;;;5.35;;
52368;SDS011;38298;50.346;3.526;2022-09-03T03:43:39;9.90;;;5.43;;
52368;SDS011;38298;50.346;3.526;2022-09-03T03:46:06;8.60;;;5.70;;
52368;SDS011;38298;50.346;3.526;2022-09-03T03:48:32;7.10;;;5.18;;
52368;SDS011;38298;50.346;3.526;2022-09-03T03:51:01;10.40;;;5.10;;
52368;SDS011;38298;50.346;3.526;2022-09-03T03:53:28;7.53;;;5.05;;
52368;SDS011;38298;50.346;3.526;2022-09-03T03:55:54;6.78;;;4.90;;
52368;SDS011;38298;50.346;3.526;2022-09-03T03:58:21;8.80;;;5.05;;
52368;SDS011;38298;50.346;3.526;2022-09-03T04:00:47;6.22;;;4.75;;
52368;SDS011;38298;50.346;3.526;2022-09-03T04:03:14;6.00;;;4.60;;
52368;SDS011;38298;50.346;3.526;2022-09-03T04:05:40;5.55;;;4.80;;
52368;SDS011;38298;50.346;3.526;2022-09-03T04:08:07;10.05;;;5.20;;
52368;SDS011;38298;50.346;3.526;2022-09-03T04:10:34;8.63;;;4.53;;
52368;SDS011;38298;50.346;3.526;2022-09-03T04:13:00;9.15;;;4.95;;
52368;SDS011;38298;50.346;3.526;2022-09-03T04:15:26;6.13;;;4.20;;
52368;SDS011;38298;50.346;3.526;2022-09-03T04:17:53;9.65;;;4.30;;
52368;SDS011;38298;50.346;3.526;2022-09-03T04:20:19;7.03;;;4.57;;
52368;SDS011;38298;50.346;3.526;2022-09-03T04:22:45;5.40;;;4.38;;
52368;SDS011;38298;50.346;3.526;2022-09-03T04:25:11;7.32;;;4.07;;
52368;SDS011;38298;50.346;3.526;2022-09-03T04:27:37;7.53;;;4.53;;
52368;SDS011;38298;50.346;3.526;2022-09-03T04:30:03;8.60;;;4.05;;
52368;SDS011;38298;50.346;3.526;2022-09-03T04:32:30;6.95;;;4.50;;
52368;SDS011;38298;50.346;3.526;2022-09-03T04:35:14;7.45;;;4.55;;
52368;SDS011;38298;50.346;3.526;2022-09-03T04:37:40;5.43;;;4.28;;
52368;SDS011;38298;50.346;3.526;2022-09-03T04:40:07;6.07;;;4.10;;
52368;SDS011;38298;50.346;3.526;2022-09-03T04:42:33;4.30;;;3.90;;
52368;SDS011;38298;50.346;3.526;2022-09-03T04:44:59;5.68;;;4.43;;
52368;SDS011;38298;50.346;3.526;2022-09-03T04:47:25;4.93;;;4.00;;
52368;SDS011;38298;50.346;3.526;2022-09-03T04:49:52;5.00;;;3.65;;
52368;SDS011;38298;50.346;3.526;2022-09-03T04:52:19;10.55;;;4.40;;
52368;SDS011;38298;50.346;3.526;2022-09-03T04:54:45;4.90;;;4.10;;
52368;SDS011;38298;50.346;3.526;2022-09-03T04:57:11;6.75;;;4.00;;
52368;SDS011;38298;50.346;3.526;2022-09-03T04:59:37;6.25;;;4.20;;
52368;SDS011;38298;50.346;3.526;2022-09-03T05:02:05;9.93;;;4.20;;
52368;SDS011;38298;50.346;3.526;2022-09-03T05:04:32;8.43;;;3.83;;
52368;SDS011;38298;50.346;3.526;2022-09-03T05:06:58;11.75;;;4.53;;
52368;SDS011;38298;50.346;3.526;2022-09-03T05:09:24;4.43;;;3.75;;
52368;SDS011;38298;50.346;3.526;2022-09-03T05:11:50;6.03;;;4.28;;
52368;SDS011;38298;50.346;3.526;2022-09-03T05:14:16;5.05;;;3.45;;
52368;SDS011;38298;50.346;3.526;2022-09-03T05:16:42;6.85;;;3.88;;
52368;SDS011;38298;50.346;3.526;2022-09-03T05:19:08;5.43;;;3.50;;
52368;SDS011;38298;50.346;3.526;2022-09-03T05:21:35;4.45;;;4.05;;
52368;SDS011;38298;50.346;3.526;2022-09-03T05:24:01;7.15;;;3.83;;
52368;SDS011;38298;50.346;3.526;2022-09-03T05:26:28;5.53;;;4.05;;
52368;SDS011;38298;50.346;3.526;2022-09-03T05:28:55;7.35;;;4.07;;
52368;SDS011;38298;50.346;3.526;2022-09-03T05:31:22;4.97;;;3.45;;
52368;SDS011;38298;50.346;3.526;2022-09-03T05:33:51;5.85;;;3.92;;
52368;SDS011;38298;50.346;3.526;2022-09-03T05:36:20;4.60;;;3.90;;
52368;SDS011;38298;50.346;3.526;2022-09-03T05:38:47;3.83;;;3.42;;
52368;SDS011;38298;50.346;3.526;2022-09-03T05:41:14;5.15;;;3.63;;
52368;SDS011;38298;50.346;3.526;2022-09-03T05:43:40;4.40;;;3.35;;
52368;SDS011;38298;50.346;3.526;2022-09-03T05:46:08;4.93;;;4.03;;
52368;SDS011;38298;50.346;3.526;2022-09-03T05:48:34;6.07;;;4.40;;
52368;SDS011;38298;50.346;3.526;2022-09-03T05:51:02;4.53;;;3.50;;
52368;SDS011;38298;50.346;3.526;2022-09-03T05:53:28;6.22;;;3.70;;
52368;SDS011;38298;50.346;3.526;2022-09-03T05:55:55;6.50;;;3.45;;
52368;SDS011;38298;50.346;3.526;2022-09-03T05:58:22;5.72;;;4.00;;
52368;SDS011;38298;50.346;3.526;2022-09-03T06:00:49;5.00;;;3.65;;
52368;SDS011;38298;50.346;3.526;2022-09-03T06:03:15;6.13;;;4.00;;
52368;SDS011;38298;50.346;3.526;2022-09-03T06:05:48;3.95;;;3.55;;
52368;SDS011;38298;50.346;3.526;2022-09-03T06:08:15;5.80;;;3.72;;
52368;SDS011;38298;50.346;3.526;2022-09-03T06:10:41;4.90;;;3.83;;
52368;SDS011;38298;50.346;3.526;2022-09-03T06:13:07;4.13;;;3.72;;
52368;SDS011;38298;50.346;3.526;2022-09-03T06:15:33;7.35;;;3.70;;
52368;SDS011;38298;50.346;3.526;2022-09-03T06:17:59;6.32;;;4.15;;
52368;SDS011;38298;50.346;3.526;2022-09-03T06:20:25;8.57;;;3.72;;
52368;SDS011;38298;50.346;3.526;2022-09-03T06:22:52;5.80;;;3.80;;
52368;SDS011;38298;50.346;3.526;2022-09-03T06:25:19;6.53;;;3.75;;
52368;SDS011;38298;50.346;3.526;2022-09-03T06:27:45;6.70;;;3.60;;
52368;SDS011;38298;50.346;3.526;2022-09-03T06:30:11;3.88;;;3.47;;
52368;SDS011;38298;50.346;3.526;2022-09-03T06:32:47;5.13;;;3.90;;
52368;SDS011;38298;50.346;3.526;2022-09-03T06:35:16;7.13;;;3.30;;
52368;SDS011;38298;50.346;3.526;2022-09-03T06:37:42;4.78;;;3.10;;
52368;SDS011;38298;50.346;3.526;2022-09-03T06:40:09;4.38;;;3.80;;
52368;SDS011;38298;50.346;3.526;2022-09-03T06:42:38;4.10;;;3.20;;
52368;SDS011;38298;50.346;3.526;2022-09-03T06:45:05;8.85;;;4.50;;
52368;SDS011;38298;50.346;3.526;2022-09-03T06:47:31;5.68;;;3.70;;
52368;SDS011;38298;50.346;3.526;2022-09-03T06:49:58;6.38;;;3.83;;
52368;SDS011;38298;50.346;3.526;2022-09-03T06:52:24;4.47;;;3.67;;
52368;SDS011;38298;50.346;3.526;2022-09-03T06:54:51;9.45;;;3.88;;
52368;SDS011;38298;50.346;3.526;2022-09-03T06:57:17;8.07;;;4.07;;
52368;SDS011;38298;50.346;3.526;2022-09-03T06:59:43;7.55;;;3.90;;
52368;SDS011;38298;50.346;3.526;2022-09-03T07:02:09;6.28;;;3.90;;
52368;SDS011;38298;50.346;3.526;2022-09-03T07:04:35;5.90;;;3.80;;
52368;SDS011;38298;50.346;3.526;2022-09-03T07:07:02;4.95;;;3.50;;
52368;SDS011;38298;50.346;3.526;2022-09-03T07:09:28;3.88;;;3.50;;
52368;SDS011;38298;50.346;3.526;2022-09-03T07:11:56;6.47;;;3.83;;
52368;SDS011;38298;50.346;3.526;2022-09-03T07:14:22;7.10;;;3.55;;
52368;SDS011;38298;50.346;3.526;2022-09-03T07:16:48;7.93;;;4.20;;
52368;SDS011;38298;50.346;3.526;2022-09-03T07:19:15;7.75;;;4.28;;
52368;SDS011;38298;50.346;3.526;2022-09-03T07:21:42;5.63;;;3.67;;
52368;SDS011;38298;50.346;3.526;2022-09-03T07:24:08;6.65;;;4.32;;
52368;SDS011;38298;50.346;3.526;2022-09-03T07:26:35;8.00;;;4.13;;
52368;SDS011;38298;50.346;3.526;2022-09-03T07:29:04;5.35;;;3.90;;
52368;SDS011;38298;50.346;3.526;2022-09-03T07:31:36;5.40;;;3.88;;
52368;SDS011;38298;50.346;3.526;2022-09-03T07:34:03;6.13;;;4.35;;
52368;SDS011;38298;50.346;3.526;2022-09-03T07:36:30;6.25;;;3.83;;
52368;SDS011;38298;50.346;3.526;2022-09-03T07:38:57;5.15;;;3.97;;
52368;SDS011;38298;50.346;3.526;2022-09-03T07:41:24;5.95;;;3.88;;
52368;SDS011;38298;50.346;3.526;2022-09-03T07:43:51;6.88;;;4.20;;
52368;SDS011;38298;50.346;3.526;2022-09-03T07:46:18;7.50;;;3.85;;
52368;SDS011;38298;50.346;3.526;2022-09-03T07:48:48;5.43;;;3.70;;
52368;SDS011;38298;50.346;3.526;2022-09-03T07:51:15;7.28;;;4.13;;
52368;SDS011;38298;50.346;3.526;2022-09-03T07:53:42;7.18;;;4.43;;
52368;SDS011;38298;50.346;3.526;2022-09-03T07:56:08;5.65;;;3.85;;
52368;SDS011;38298;50.346;3.526;2022-09-03T07:58:35;9.07;;;4.13;;
52368;SDS011;38298;50.346;3.526;2022-09-03T08:01:05;4.70;;;3.90;;
52368;SDS011;38298;50.346;3.526;2022-09-03T08:03:32;5.85;;;3.78;;
52368;SDS011;38298;50.346;3.526;2022-09-03T08:06:02;6.35;;;3.83;;
52368;SDS011;38298;50.346;3.526;2022-09-03T08:08:29;5.43;;;4.00;;
52368;SDS011;38298;50.346;3.526;2022-09-03T08:11:02;7.05;;;4.03;;
52368;SDS011;38298;50.346;3.526;2022-09-03T08:13:33;8.23;;;4.30;;
52368;SDS011;38298;50.346;3.526;2022-09-03T08:15:59;6.35;;;4.07;;
52368;SDS011;38298;50.346;3.526;2022-09-03T08:18:25;5.35;;;4.07;;
52368;SDS011;38298;50.346;3.526;2022-09-03T08:21:01;7.43;;;4.20;;
52368;SDS011;38298;50.346;3.526;2022-09-03T08:23:27;5.55;;;4.38;;
52368;SDS011;38298;50.346;3.526;2022-09-03T08:25:57;10.93;;;4.35;;
52368;SDS011;38298;50.346;3.526;2022-09-03T08:30:50;8.90;;;4.47;;
52368;SDS011;38298;50.346;3.526;2022-09-03T08:33:16;8.48;;;5.13;;
52368;SDS011;38298;50.346;3.526;2022-09-03T08:36:23;9.07;;;4.22;;
52368;SDS011;38298;50.346;3.526;2022-09-03T08:38:47;7.45;;;5.07;;
52368;SDS011;38298;50.346;3.526;2022-09-03T08:41:19;7.25;;;3.95;;
52368;SDS011;38298;50.346;3.526;2022-09-03T08:44:05;7.72;;;4.95;;
52368;SDS011;38298;50.346;3.526;2022-09-03T08:49:07;12.05;;;4.82;;
52368;SDS011;38298;50.346;3.526;2022-09-03T08:51:36;6.57;;;4.40;;
52368;SDS011;38298;50.346;3.526;2022-09-03T08:54:04;5.95;;;5.07;;
52368;SDS011;38298;50.346;3.526;2022-09-03T08:56:32;6.70;;;4.78;;
52368;SDS011;38298;50.346;3.526;2022-09-03T08:59:02;7.45;;;5.57;;
52368;SDS011;38298;50.346;3.526;2022-09-03T09:01:32;6.53;;;4.88;;
52368;SDS011;38298;50.346;3.526;2022-09-03T09:06:42;7.30;;;5.22;;
52368;SDS011;38298;50.346;3.526;2022-09-03T09:11:53;8.07;;;5.45;;
52368;SDS011;38298;50.346;3.526;2022-09-03T09:14:25;6.88;;;5.05;;
52368;SDS011;38298;50.346;3.526;2022-09-03T09:19:25;7.60;;;5.05;;
52368;SDS011;38298;50.346;3.526;2022-09-03T09:21:56;6.95;;;5.47;;
52368;SDS011;38298;50.346;3.526;2022-09-03T09:24:24;8.65;;;4.68;;
52368;SDS011;38298;50.346;3.526;2022-09-03T09:26:54;4.70;;;4.20;;
52368;SDS011;38298;50.346;3.526;2022-09-03T09:29:20;6.60;;;4.63;;
52368;SDS011;38298;50.346;3.526;2022-09-03T09:31:47;6.43;;;5.28;;
52368;SDS011;38298;50.346;3.526;2022-09-03T09:34:13;7.97;;;5.57;;
52368;SDS011;38298;50.346;3.526;2022-09-03T09:36:44;7.45;;;5.35;;
52368;SDS011;38298;50.346;3.526;2022-09-03T09:39:12;7.28;;;5.32;;
52368;SDS011;38298;50.346;3.526;2022-09-03T09:41:41;8.18;;;5.28;;
52368;SDS011;38298;50.346;3.526;2022-09-03T09:44:17;8.07;;;5.63;;
52368;SDS011;38298;50.346;3.526;2022-09-03T09:46:43;9.15;;;5.25;;
52368;SDS011;38298;50.346;3.526;2022-09-03T09:52:07;7.70;;;5.90;;
52368;SDS011;38298;50.346;3.526;2022-09-03T09:57:03;7.45;;;5.20;;
52368;SDS011;38298;50.346;3.526;2022-09-03T09:59:30;10.20;;;6.07;;
52368;SDS011;38298;50.346;3.526;2022-09-03T10:04:36;10.45;;;6.30;;
52368;SDS011;38298;50.346;3.526;2022-09-03T10:07:04;10.45;;;5.28;;
52368;SDS011;38298;50.346;3.526;2022-09-03T10:09:32;8.48;;;5.45;;
52368;SDS011;38298;50.346;3.526;2022-09-03T10:26:16;7.68;;;5.30;;
52368;SDS011;38298;50.346;3.526;2022-09-03T10:28:17;5.68;;;4.22;;
52368;SDS011;38298;50.346;3.526;2022-09-03T10:31:00;5.53;;;4.13;;
52368;SDS011;38298;50.346;3.526;2022-09-03T10:33:29;5.53;;;4.57;;
52368;SDS011;38298;50.346;3.526;2022-09-03T10:36:18;6.43;;;4.60;;
52368;SDS011;38298;50.346;3.526;2022-09-03T10:52:11;9.18;;;3.33;;
52368;SDS011;38298;50.346;3.526;2022-09-03T11:07:12;7.20;;;3.33;;
52368;SDS011;38298;50.346;3.526;2022-09-03T11:09:45;6.43;;;3.35;;
52368;SDS011;38298;50.346;3.526;2022-09-03T11:12:18;4.40;;;3.17;;
52368;SDS011;38298;50.346;3.526;2022-09-03T11:15:08;4.78;;;3.20;;
52368;SDS011;38298;50.346;3.526;2022-09-03T11:17:36;5.63;;;3.28;;
52368;SDS011;38298;50.346;3.526;2022-09-03T11:22:35;3.80;;;3.25;;
52368;SDS011;38298;50.346;3.526;2022-09-03T11:25:03;3.70;;;2.92;;
52368;SDS011;38298;50.346;3.526;2022-09-03T11:27:48;5.90;;;2.88;;
52368;SDS011;38298;50.346;3.526;2022-09-03T11:30:44;4.70;;;2.33;;
52368;SDS011;38298;50.346;3.526;2022-09-03T11:33:08;3.22;;;2.78;;
52368;SDS011;38298;50.346;3.526;2022-09-03T11:38:04;2.92;;;1.27;;
52368;SDS011;38298;50.346;3.526;2022-09-03T11:40:32;1.73;;;1.48;;
52368;SDS011;38298;50.346;3.526;2022-09-03T11:43:32;2.00;;;1.80;;
52368;SDS011;38298;50.346;3.526;2022-09-03T11:46:01;4.07;;;2.60;;
52368;SDS011;38298;50.346;3.526;2022-09-03T11:50:57;3.72;;;2.20;;
52368;SDS011;38298;50.346;3.526;2022-09-03T11:53:25;1.90;;;1.63;;
52368;SDS011;38298;50.346;3.526;2022-09-03T11:56:36;2.50;;;1.52;;
52368;SDS011;38298;50.346;3.526;2022-09-03T11:58:43;1.58;;;1.45;;
52368;SDS011;38298;50.346;3.526;2022-09-03T12:01:11;3.75;;;1.60;;
52368;SDS011;38298;50.346;3.526;2022-09-03T12:19:03;1.60;;;1.50;;
52368;SDS011;38298;50.346;3.526;2022-09-03T12:21:39;2.08;;;1.58;;
52368;SDS011;38298;50.346;3.526;2022-09-03T12:24:05;5.18;;;2.03;;
52368;SDS011;38298;50.346;3.526;2022-09-03T12:26:37;2.72;;;1.92;;
52368;SDS011;38298;50.346;3.526;2022-09-03T12:29:03;2.63;;;1.63;;
52368;SDS011;38298;50.346;3.526;2022-09-03T12:31:31;2.38;;;1.95;;
52368;SDS011;38298;50.346;3.526;2022-09-03T12:34:06;4.90;;;1.67;;
52368;SDS011;38298;50.346;3.526;2022-09-03T12:36:38;2.90;;;1.33;;
52368;SDS011;38298;50.346;3.526;2022-09-03T12:39:10;1.48;;;1.38;;
52368;SDS011;38298;50.346;3.526;2022-09-03T12:41:37;4.75;;;1.60;;
52368;SDS011;38298;50.346;3.526;2022-09-03T12:44:04;1.85;;;1.35;;
52368;SDS011;38298;50.346;3.526;2022-09-03T12:46:30;3.42;;;1.25;;
52368;SDS011;38298;50.346;3.526;2022-09-03T12:48:58;1.30;;;1.20;;
52368;SDS011;38298;50.346;3.526;2022-09-03T12:51:31;2.92;;;1.30;;
52368;SDS011;38298;50.346;3.526;2022-09-03T12:53:58;2.20;;;1.20;;
52368;SDS011;38298;50.346;3.526;2022-09-03T12:56:25;1.38;;;1.10;;
52368;SDS011;38298;50.346;3.526;2022-09-03T12:59:14;1.10;;;1.00;;
52368;SDS011;38298;50.346;3.526;2022-09-03T13:01:51;2.00;;;1.10;;
52368;SDS011;38298;50.346;3.526;2022-09-03T13:04:20;2.88;;;1.40;;
52368;SDS011;38298;50.346;3.526;2022-09-03T13:09:21;1.02;;;0.75;;
52368;SDS011;38298;50.346;3.526;2022-09-03T13:11:47;1.70;;;1.02;;
52368;SDS011;38298;50.346;3.526;2022-09-03T13:14:16;2.05;;;1.20;;
52368;SDS011;38298;50.346;3.526;2022-09-03T13:27:53;5.03;;;1.67;;
52368;SDS011;38298;50.346;3.526;2022-09-03T13:32:33;1.63;;;1.38;;
52368;SDS011;38298;50.346;3.526;2022-09-03T13:37:54;1.50;;;1.13;;
52368;SDS011;38298;50.346;3.526;2022-09-03T13:40:36;1.10;;;1.00;;
52368;SDS011;38298;50.346;3.526;2022-09-03T13:43:26;4.55;;;1.10;;
52368;SDS011;38298;50.346;3.526;2022-09-03T13:45:55;1.10;;;0.88;;
52368;SDS011;38298;50.346;3.526;2022-09-03T13:51:18;1.02;;;0.80;;
52368;SDS011;38298;50.346;3.526;2022-09-03T13:59:00;1.40;;;0.90;;
52368;SDS011;38298;50.346;3.526;2022-09-03T14:01:40;2.20;;;1.33;;
52368;SDS011;38298;50.346;3.526;2022-09-03T14:04:20;4.22;;;2.05;;
52368;SDS011;38298;50.346;3.526;2022-09-03T14:07:10;7.33;;;1.50;;
52368;SDS011;38298;50.346;3.526;2022-09-03T14:15:14;2.15;;;1.40;;
52368;SDS011;38298;50.346;3.526;2022-09-03T14:17:55;4.90;;;1.35;;
52368;SDS011;38298;50.346;3.526;2022-09-03T14:20:28;0.98;;;0.85;;
52368;SDS011;38298;50.346;3.526;2022-09-03T14:22:55;0.90;;;0.77;;
52368;SDS011;38298;50.346;3.526;2022-09-03T14:25:24;1.08;;;0.40;;
52368;SDS011;38298;50.346;3.526;2022-09-03T14:27:51;1.92;;;0.35;;
52368;SDS011;38298;50.346;3.526;2022-09-03T14:30:19;0.40;;;0.40;;
52368;SDS011;38298;50.346;3.526;2022-09-03T14:38:01;0.57;;;0.40;;
52368;SDS011;38298;50.346;3.526;2022-09-03T14:40:40;1.40;;;0.30;;
52368;SDS011;38298;50.346;3.526;2022-09-03T14:53:44;0.80;;;0.63;;
52368;SDS011;38298;50.346;3.526;2022-09-03T14:56:20;2.53;;;0.55;;
52368;SDS011;38298;50.346;3.526;2022-09-03T14:58:59;2.60;;;0.50;;
52368;SDS011;38298;50.346;3.526;2022-09-03T15:01:27;2.05;;;0.70;;
52368;SDS011;38298;50.346;3.526;2022-09-03T15:11:22;2.20;;;0.80;;
52368;SDS011;38298;50.346;3.526;2022-09-03T15:13:51;2.88;;;1.20;;
52368;SDS011;38298;50.346;3.526;2022-09-03T15:16:30;4.32;;;0.90;;
52368;SDS011;38298;50.346;3.526;2022-09-03T15:19:04;2.55;;;0.90;;
52368;SDS011;38298;50.346;3.526;2022-09-03T15:31:57;2.65;;;1.30;;
52368;SDS011;38298;50.346;3.526;2022-09-03T15:34:42;1.35;;;0.55;;
52368;SDS011;38298;50.346;3.526;2022-09-03T15:37:57;1.65;;;0.65;;
52368;SDS011;38298;50.346;3.526;2022-09-03T15:40:00;3.28;;;1.00;;
52368;SDS011;38298;50.346;3.526;2022-09-03T15:42:27;3.03;;;0.80;;
52368;SDS011;38298;50.346;3.526;2022-09-03T15:45:05;0.88;;;0.77;;
52368;SDS011;38298;50.346;3.526;2022-09-03T15:47:39;1.17;;;0.90;;
52368;SDS011;38298;50.346;3.526;2022-09-03T16:00:17;1.27;;;0.93;;
52368;SDS011;38298;50.346;3.526;2022-09-03T16:02:51;0.93;;;0.80;;
52368;SDS011;38298;50.346;3.526;2022-09-03T16:05:25;4.38;;;0.63;;
52368;SDS011;38298;50.346;3.526;2022-09-03T16:10:41;1.13;;;0.75;;
52368;SDS011;38298;50.346;3.526;2022-09-03T16:15:50;4.72;;;1.17;;
52368;SDS011;38298;50.346;3.526;2022-09-03T16:18:27;4.03;;;0.80;;
52368;SDS011;38298;50.346;3.526;2022-09-03T16:21:00;5.68;;;1.05;;
52368;SDS011;38298;50.346;3.526;2022-09-03T16:23:30;1.58;;;0.85;;
52368;SDS011;38298;50.346;3.526;2022-09-03T16:26:00;1.42;;;0.70;;
52368;SDS011;38298;50.346;3.526;2022-09-03T16:29:12;2.28;;;0.95;;
52368;SDS011;38298;50.346;3.526;2022-09-03T16:39:06;0.93;;;0.80;;
52368;SDS011;38298;50.346;3.526;2022-09-03T16:41:49;1.83;;;0.80;;
52368;SDS011;38298;50.346;3.526;2022-09-03T16:47:01;1.70;;;0.90;;
52368;SDS011;38298;50.346;3.526;2022-09-03T16:52:08;1.65;;;0.80;;
52368;SDS011;38298;50.346;3.526;2022-09-03T17:05:04;2.17;;;1.00;;
52368;SDS011;38298;50.346;3.526;2022-09-03T17:17:51;0.95;;;0.77;;
52368;SDS011;38298;50.346;3.526;2022-09-03T17:20:20;1.38;;;1.00;;
52368;SDS011;38298;50.346;3.526;2022-09-03T17:33:15;1.13;;;1.02;;
52368;SDS011;38298;50.346;3.526;2022-09-03T17:46:27;12.55;;;6.18;;
52368;SDS011;38298;50.346;3.526;2022-09-03T17:48:59;8.82;;;4.75;;
52368;SDS011;38298;50.346;3.526;2022-09-03T17:51:30;12.73;;;2.17;;
52368;SDS011;38298;50.346;3.526;2022-09-03T17:54:05;7.10;;;3.30;;
52368;SDS011;38298;50.346;3.526;2022-09-03T17:56:48;2.30;;;1.65;;
52368;SDS011;38298;50.346;3.526;2022-09-03T18:01:58;6.57;;;2.83;;
52368;SDS011;38298;50.346;3.526;2022-09-03T18:09:22;12.57;;;5.70;;
52368;SDS011;38298;50.346;3.526;2022-09-03T18:11:53;10.88;;;5.07;;
52368;SDS011;38298;50.346;3.526;2022-09-03T18:14:34;10.63;;;6.03;;
52368;SDS011;38298;50.346;3.526;2022-09-03T18:17:07;16.60;;;4.53;;
52368;SDS011;38298;50.346;3.526;2022-09-03T18:19:38;23.65;;;13.90;;
52368;SDS011;38298;50.346;3.526;2022-09-03T18:22:39;19.48;;;10.65;;
52368;SDS011;38298;50.346;3.526;2022-09-03T18:25:25;17.83;;;10.15;;
52368;SDS011;38298;50.346;3.526;2022-09-03T18:28:11;15.25;;;8.13;;
52368;SDS011;38298;50.346;3.526;2022-09-03T18:30:57;10.10;;;5.93;;
52368;SDS011;38298;50.346;3.526;2022-09-03T18:33:42;6.32;;;3.22;;
52368;SDS011;38298;50.346;3.526;2022-09-03T18:36:27;5.47;;;2.75;;
52368;SDS011;38298;50.346;3.526;2022-09-03T18:39:24;4.40;;;3.13;;
52368;SDS011;38298;50.346;3.526;2022-09-03T18:45:51;4.20;;;2.08;;
52368;SDS011;38298;50.346;3.526;2022-09-03T18:54:13;5.43;;;1.90;;
52368;SDS011;38298;50.346;3.526;2022-09-03T18:57:00;3.88;;;1.70;;
52368;SDS011;38298;50.346;3.526;2022-09-03T19:05:32;6.70;;;2.20;;
52368;SDS011;38298;50.346;3.526;2022-09-03T19:08:28;7.25;;;3.05;;
52368;SDS011;38298;50.346;3.526;2022-09-03T19:11:29;4.88;;;2.65;;
52368;SDS011;38298;50.346;3.526;2022-09-03T19:17:51;2.97;;;2.15;;
52368;SDS011;38298;50.346;3.526;2022-09-03T19:20:30;6.47;;;1.80;;
52368;SDS011;38298;50.346;3.526;2022-09-03T19:23:15;6.40;;;1.90;;
52368;SDS011;38298;50.346;3.526;2022-09-03T19:26:20;7.80;;;1.77;;
52368;SDS011;38298;50.346;3.526;2022-09-03T19:29:12;2.83;;;1.67;;
52368;SDS011;38298;50.346;3.526;2022-09-03T19:32:02;4.47;;;1.95;;
52368;SDS011;38298;50.346;3.526;2022-09-03T19:40:51;12.18;;;5.93;;
52368;SDS011;38298;50.346;3.526;2022-09-03T19:46:54;6.00;;;2.50;;
52368;SDS011;38298;50.346;3.526;2022-09-03T19:52:53;6.40;;;2.33;;
52368;SDS011;38298;50.346;3.526;2022-09-03T19:56:00;2.72;;;2.08;;
52368;SDS011;38298;50.346;3.526;2022-09-03T19:58:48;3.20;;;2.30;;
52368;SDS011;38298;50.346;3.526;2022-09-03T20:01:33;3.88;;;2.35;;
52368;SDS011;38298;50.346;3.526;2022-09-03T20:04:19;4.38;;;2.20;;
52368;SDS011;38298;50.346;3.526;2022-09-03T20:07:07;8.07;;;2.28;;
52368;SDS011;38298;50.346;3.526;2022-09-03T20:09:52;4.07;;;2.50;;
52368;SDS011;38298;50.346;3.526;2022-09-03T20:12:39;4.22;;;2.30;;
52368;SDS011;38298;50.346;3.526;2022-09-03T20:15:07;4.32;;;2.05;;